sensor_id;sensor_type;location;lat;lon;timestamp;temperature;humidity
37268;DHT22;23154;52.542;13.362;2022-08-30T00:01:31;15.70;99.90
37268;DHT22;23154;52.542;13.362;2022-08-30T00:03:58;15.70;99.90
37268;DHT22;23154;52.542;13.362;2022-08-30T00:06:24;15.60;99.90
37268;DHT22;23154;52.542;13.362;2022-08-30T00:08:51;15.60;99.90
37268;DHT22;23154;52.542;13.362;2022-08-30T00:11:22;15.60;99.90
37268;DHT22;23154;52.542;13.362;2022-08-30T00:13:51;15.60;99.90
37268;DHT22;23154;52.542;13.362;2022-08-30T00:16:18;15.60;99.90
37268;DHT22;23154;52.542;13.362;2022-08-30T00:18:45;15.60;99.90
37268;DHT22;23154;52.542;13.362;2022-08-30T00:21:11;15.50;99.90
37268;DHT22;23154;52.542;13.362;2022-08-30T00:23:38;15.50;99.90
37268;DHT22;23154;52.542;13.362;2022-08-30T00:26:05;15.50;99.90
37268;DHT22;23154;52.542;13.362;2022-08-30T00:28:31;15.50;99.90
37268;DHT22;23154;52.542;13.362;2022-08-30T00:30:58;15.40;99.90
37268;DHT22;23154;52.542;13.362;2022-08-30T00:33:26;15.50;99.90
37268;DHT22;23154;52.542;13.362;2022-08-30T00:35:52;15.60;99.90
37268;DHT22;23154;52.542;13.362;2022-08-30T00:38:17;15.60;99.90
37268;DHT22;23154;52.542;13.362;2022-08-30T00:40:43;15.60;99.90
37268;DHT22;23154;52.542;13.362;2022-08-30T00:43:17;15.50;99.90
37268;DHT22;23154;52.542;13.362;2022-08-30T00:45:43;15.60;99.90
37268;DHT22;23154;52.542;13.362;2022-08-30T00:48:09;15.70;99.90
37268;DHT22;23154;52.542;13.362;2022-08-30T00:53:35;15.60;99.90
37268;DHT22;23154;52.542;13.362;2022-08-30T00:56:02;15.50;99.90
37268;DHT22;23154;52.542;13.362;2022-08-30T00:58:31;15.50;99.90
37268;DHT22;23154;52.542;13.362;2022-08-30T01:00:59;15.50;99.90
37268;DHT22;23154;52.542;13.362;2022-08-30T01:03:25;15.50;99.90
37268;DHT22;23154;52.542;13.362;2022-08-30T01:05:52;15.50;99.90
37268;DHT22;23154;52.542;13.362;2022-08-30T01:08:18;15.50;99.90
37268;DHT22;23154;52.542;13.362;2022-08-30T01:10:48;15.50;99.90
37268;DHT22;23154;52.542;13.362;2022-08-30T01:13:15;15.40;99.90
37268;DHT22;23154;52.542;13.362;2022-08-30T01:15:42;15.40;99.90
37268;DHT22;23154;52.542;13.362;2022-08-30T01:18:08;15.40;99.90
37268;DHT22;23154;52.542;13.362;2022-08-30T01:20:59;15.40;99.90
37268;DHT22;23154;52.542;13.362;2022-08-30T01:23:29;15.30;99.90
37268;DHT22;23154;52.542;13.362;2022-08-30T01:25:56;15.30;99.90
37268;DHT22;23154;52.542;13.362;2022-08-30T01:28:24;15.20;99.90
37268;DHT22;23154;52.542;13.362;2022-08-30T01:30:50;15.20;99.90
37268;DHT22;23154;52.542;13.362;2022-08-30T01:33:16;15.20;99.90
37268;DHT22;23154;52.542;13.362;2022-08-30T01:35:56;15.10;99.90
37268;DHT22;23154;52.542;13.362;2022-08-30T01:38:32;15.10;99.90
37268;DHT22;23154;52.542;13.362;2022-08-30T01:41:07;15.10;99.90
37268;DHT22;23154;52.542;13.362;2022-08-30T01:43:33;15.20;99.90
37268;DHT22;23154;52.542;13.362;2022-08-30T01:45:59;15.20;99.90
37268;DHT22;23154;52.542;13.362;2022-08-30T01:48:26;15.20;99.90
37268;DHT22;23154;52.542;13.362;2022-08-30T01:50:53;15.20;99.90
37268;DHT22;23154;52.542;13.362;2022-08-30T01:53:19;15.10;99.90
37268;DHT22;23154;52.542;13.362;2022-08-30T01:55:45;15.10;99.90
37268;DHT22;23154;52.542;13.362;2022-08-30T01:58:11;15.10;99.90
37268;DHT22;23154;52.542;13.362;2022-08-30T02:00:37;15.10;99.90
37268;DHT22;23154;52.542;13.362;2022-08-30T02:03:03;15.10;99.90
37268;DHT22;23154;52.542;13.362;2022-08-30T02:05:29;15.00;99.90
37268;DHT22;23154;52.542;13.362;2022-08-30T02:07:55;15.00;99.90
37268;DHT22;23154;52.542;13.362;2022-08-30T02:10:21;15.00;99.90
37268;DHT22;23154;52.542;13.362;2022-08-30T02:12:46;15.00;99.90
37268;DHT22;23154;52.542;13.362;2022-08-30T02:15:12;14.90;99.90
37268;DHT22;23154;52.542;13.362;2022-08-30T02:17:38;14.80;99.90
37268;DHT22;23154;52.542;13.362;2022-08-30T02:20:06;14.80;99.90
37268;DHT22;23154;52.542;13.362;2022-08-30T02:22:32;14.80;99.90
37268;DHT22;23154;52.542;13.362;2022-08-30T02:24:57;14.80;99.90
37268;DHT22;23154;52.542;13.362;2022-08-30T02:27:23;14.80;99.90
37268;DHT22;23154;52.542;13.362;2022-08-30T02:29:50;14.80;99.90
37268;DHT22;23154;52.542;13.362;2022-08-30T02:32:16;14.80;99.90
37268;DHT22;23154;52.542;13.362;2022-08-30T02:34:41;14.80;99.90
37268;DHT22;23154;52.542;13.362;2022-08-30T02:37:08;14.80;99.90
37268;DHT22;23154;52.542;13.362;2022-08-30T02:39:34;14.70;99.90
37268;DHT22;23154;52.542;13.362;2022-08-30T02:42:00;14.70;99.90
37268;DHT22;23154;52.542;13.362;2022-08-30T02:44:25;14.80;99.90
37268;DHT22;23154;52.542;13.362;2022-08-30T02:46:51;14.60;99.90
37268;DHT22;23154;52.542;13.362;2022-08-30T02:49:16;14.60;99.90
37268;DHT22;23154;52.542;13.362;2022-08-30T02:51:42;14.50;99.90
37268;DHT22;23154;52.542;13.362;2022-08-30T02:54:08;14.50;99.90
37268;DHT22;23154;52.542;13.362;2022-08-30T02:56:33;14.50;99.90
37268;DHT22;23154;52.542;13.362;2022-08-30T02:58:59;14.40;99.90
37268;DHT22;23154;52.542;13.362;2022-08-30T03:01:24;14.50;99.90
37268;DHT22;23154;52.542;13.362;2022-08-30T03:03:50;14.60;99.90
37268;DHT22;23154;52.542;13.362;2022-08-30T03:06:16;14.60;99.90
37268;DHT22;23154;52.542;13.362;2022-08-30T03:08:43;14.60;99.90
37268;DHT22;23154;52.542;13.362;2022-08-30T03:11:09;14.50;99.90
37268;DHT22;23154;52.542;13.362;2022-08-30T03:13:35;14.50;99.90
37268;DHT22;23154;52.542;13.362;2022-08-30T03:16:01;14.40;99.90
37268;DHT22;23154;52.542;13.362;2022-08-30T03:18:26;14.40;99.90
37268;DHT22;23154;52.542;13.362;2022-08-30T03:20:53;14.40;99.90
37268;DHT22;23154;52.542;13.362;2022-08-30T03:23:18;14.40;99.90
37268;DHT22;23154;52.542;13.362;2022-08-30T03:25:44;14.40;99.90
37268;DHT22;23154;52.542;13.362;2022-08-30T03:28:09;14.50;99.90
37268;DHT22;23154;52.542;13.362;2022-08-30T03:30:35;14.50;99.90
37268;DHT22;23154;52.542;13.362;2022-08-30T03:33:01;14.50;99.90
37268;DHT22;23154;52.542;13.362;2022-08-30T03:35:27;14.60;99.90
37268;DHT22;23154;52.542;13.362;2022-08-30T03:37:53;14.50;99.90
37268;DHT22;23154;52.542;13.362;2022-08-30T03:40:21;14.50;99.90
37268;DHT22;23154;52.542;13.362;2022-08-30T03:42:47;14.60;99.90
37268;DHT22;23154;52.542;13.362;2022-08-30T03:45:14;14.50;99.90
37268;DHT22;23154;52.542;13.362;2022-08-30T03:47:41;14.50;99.90
37268;DHT22;23154;52.542;13.362;2022-08-30T03:50:07;14.50;99.90
37268;DHT22;23154;52.542;13.362;2022-08-30T03:52:32;14.50;99.90
37268;DHT22;23154;52.542;13.362;2022-08-30T03:54:58;14.50;99.90
37268;DHT22;23154;52.542;13.362;2022-08-30T03:57:26;14.50;99.90
37268;DHT22;23154;52.542;13.362;2022-08-30T03:59:51;14.50;99.90
37268;DHT22;23154;52.542;13.362;2022-08-30T04:02:17;14.40;99.90
37268;DHT22;23154;52.542;13.362;2022-08-30T04:04:43;14.30;99.90
37268;DHT22;23154;52.542;13.362;2022-08-30T04:07:08;14.40;99.90
37268;DHT22;23154;52.542;13.362;2022-08-30T04:09:34;14.30;99.90
37268;DHT22;23154;52.542;13.362;2022-08-30T04:11:59;14.30;99.90
37268;DHT22;23154;52.542;13.362;2022-08-30T04:14:25;14.40;99.90
37268;DHT22;23154;52.542;13.362;2022-08-30T04:16:50;14.30;99.90
37268;DHT22;23154;52.542;13.362;2022-08-30T04:19:16;14.40;99.90
37268;DHT22;23154;52.542;13.362;2022-08-30T04:21:43;14.30;99.90
37268;DHT22;23154;52.542;13.362;2022-08-30T04:24:12;14.40;99.90
37268;DHT22;23154;52.542;13.362;2022-08-30T04:26:38;14.40;99.90
37268;DHT22;23154;52.542;13.362;2022-08-30T04:29:04;14.40;99.90
37268;DHT22;23154;52.542;13.362;2022-08-30T04:31:29;14.40;99.90
37268;DHT22;23154;52.542;13.362;2022-08-30T04:33:55;14.40;99.90
37268;DHT22;23154;52.542;13.362;2022-08-30T04:36:21;14.50;99.90
37268;DHT22;23154;52.542;13.362;2022-08-30T04:38:47;14.50;99.90
37268;DHT22;23154;52.542;13.362;2022-08-30T04:41:15;14.40;99.90
37268;DHT22;23154;52.542;13.362;2022-08-30T04:43:42;14.50;99.90
37268;DHT22;23154;52.542;13.362;2022-08-30T04:46:08;14.50;99.90
37268;DHT22;23154;52.542;13.362;2022-08-30T04:48:35;14.50;99.90
37268;DHT22;23154;52.542;13.362;2022-08-30T04:51:12;14.50;99.90
37268;DHT22;23154;52.542;13.362;2022-08-30T04:53:39;14.50;99.90
37268;DHT22;23154;52.542;13.362;2022-08-30T04:56:13;14.40;99.90
37268;DHT22;23154;52.542;13.362;2022-08-30T04:58:43;14.60;99.90
37268;DHT22;23154;52.542;13.362;2022-08-30T05:01:19;14.70;99.90
37268;DHT22;23154;52.542;13.362;2022-08-30T05:03:46;14.60;99.90
37268;DHT22;23154;52.542;13.362;2022-08-30T05:06:12;14.70;99.90
37268;DHT22;23154;52.542;13.362;2022-08-30T05:08:38;14.80;99.90
37268;DHT22;23154;52.542;13.362;2022-08-30T05:11:05;14.80;99.90
37268;DHT22;23154;52.542;13.362;2022-08-30T05:13:32;14.90;99.90
37268;DHT22;23154;52.542;13.362;2022-08-30T05:15:57;14.90;99.90
37268;DHT22;23154;52.542;13.362;2022-08-30T05:18:25;14.90;99.90
37268;DHT22;23154;52.542;13.362;2022-08-30T05:21:11;14.90;99.90
37268;DHT22;23154;52.542;13.362;2022-08-30T05:23:38;15.00;99.90
37268;DHT22;23154;52.542;13.362;2022-08-30T05:26:18;15.10;99.90
37268;DHT22;23154;52.542;13.362;2022-08-30T05:28:45;15.20;99.90
37268;DHT22;23154;52.542;13.362;2022-08-30T05:31:13;15.30;99.90
37268;DHT22;23154;52.542;13.362;2022-08-30T05:33:39;15.40;99.90
37268;DHT22;23154;52.542;13.362;2022-08-30T05:36:06;15.40;99.90
37268;DHT22;23154;52.542;13.362;2022-08-30T05:38:31;15.50;99.90
37268;DHT22;23154;52.542;13.362;2022-08-30T05:40:57;15.60;99.90
37268;DHT22;23154;52.542;13.362;2022-08-30T05:43:22;15.70;99.90
37268;DHT22;23154;52.542;13.362;2022-08-30T05:45:56;15.80;99.90
37268;DHT22;23154;52.542;13.362;2022-08-30T05:48:22;15.90;99.90
37268;DHT22;23154;52.542;13.362;2022-08-30T05:50:47;16.00;99.90
37268;DHT22;23154;52.542;13.362;2022-08-30T05:53:13;16.10;99.90
37268;DHT22;23154;52.542;13.362;2022-08-30T05:55:40;16.30;99.90
37268;DHT22;23154;52.542;13.362;2022-08-30T05:58:05;16.40;99.90
37268;DHT22;23154;52.542;13.362;2022-08-30T06:00:31;16.60;99.90
37268;DHT22;23154;52.542;13.362;2022-08-30T06:02:57;16.60;99.90
37268;DHT22;23154;52.542;13.362;2022-08-30T06:05:23;16.60;99.90
37268;DHT22;23154;52.542;13.362;2022-08-30T06:07:48;16.60;99.90
37268;DHT22;23154;52.542;13.362;2022-08-30T06:10:14;16.70;99.90
37268;DHT22;23154;52.542;13.362;2022-08-30T06:12:40;16.60;99.90
37268;DHT22;23154;52.542;13.362;2022-08-30T06:15:06;16.70;99.90
37268;DHT22;23154;52.542;13.362;2022-08-30T06:17:31;16.90;99.90
37268;DHT22;23154;52.542;13.362;2022-08-30T06:19:57;16.90;99.90
37268;DHT22;23154;52.542;13.362;2022-08-30T06:22:23;17.10;99.90
37268;DHT22;23154;52.542;13.362;2022-08-30T06:24:48;17.30;99.90
37268;DHT22;23154;52.542;13.362;2022-08-30T06:27:14;17.30;99.90
37268;DHT22;23154;52.542;13.362;2022-08-30T06:29:39;17.50;99.90
37268;DHT22;23154;52.542;13.362;2022-08-30T06:32:05;17.60;99.90
37268;DHT22;23154;52.542;13.362;2022-08-30T06:34:31;17.50;99.90
37268;DHT22;23154;52.542;13.362;2022-08-30T06:36:57;17.80;99.90
37268;DHT22;23154;52.542;13.362;2022-08-30T06:39:22;17.90;99.90
37268;DHT22;23154;52.542;13.362;2022-08-30T06:41:48;17.90;99.90
37268;DHT22;23154;52.542;13.362;2022-08-30T06:44:13;17.60;99.90
37268;DHT22;23154;52.542;13.362;2022-08-30T06:46:39;18.00;99.90
37268;DHT22;23154;52.542;13.362;2022-08-30T06:49:06;17.90;99.90
37268;DHT22;23154;52.542;13.362;2022-08-30T06:51:35;17.80;99.90
37268;DHT22;23154;52.542;13.362;2022-08-30T06:54:02;17.90;99.90
37268;DHT22;23154;52.542;13.362;2022-08-30T06:56:28;18.10;99.90
37268;DHT22;23154;52.542;13.362;2022-08-30T06:58:54;18.00;99.90
37268;DHT22;23154;52.542;13.362;2022-08-30T07:01:22;18.10;99.90
37268;DHT22;23154;52.542;13.362;2022-08-30T07:03:49;18.30;99.90
37268;DHT22;23154;52.542;13.362;2022-08-30T07:06:15;18.50;99.90
37268;DHT22;23154;52.542;13.362;2022-08-30T07:08:41;18.60;99.90
37268;DHT22;23154;52.542;13.362;2022-08-30T07:11:07;18.40;99.90
37268;DHT22;23154;52.542;13.362;2022-08-30T07:13:36;18.40;99.90
37268;DHT22;23154;52.542;13.362;2022-08-30T07:16:13;18.40;99.90
37268;DHT22;23154;52.542;13.362;2022-08-30T07:18:39;18.90;99.90
37268;DHT22;23154;52.542;13.362;2022-08-30T07:21:26;19.10;99.90
37268;DHT22;23154;52.542;13.362;2022-08-30T07:23:55;18.80;99.90
37268;DHT22;23154;52.542;13.362;2022-08-30T07:26:24;18.80;99.90
37268;DHT22;23154;52.542;13.362;2022-08-30T07:28:51;19.00;99.90
37268;DHT22;23154;52.542;13.362;2022-08-30T07:31:17;19.40;99.90
37268;DHT22;23154;52.542;13.362;2022-08-30T07:33:44;19.30;99.90
37268;DHT22;23154;52.542;13.362;2022-08-30T07:36:10;19.50;99.90
37268;DHT22;23154;52.542;13.362;2022-08-30T07:38:36;19.10;99.90
37268;DHT22;23154;52.542;13.362;2022-08-30T07:41:02;19.20;99.90
37268;DHT22;23154;52.542;13.362;2022-08-30T07:43:32;19.20;99.90
37268;DHT22;23154;52.542;13.362;2022-08-30T07:46:05;19.40;99.90
37268;DHT22;23154;52.542;13.362;2022-08-30T07:48:31;19.30;99.90
37268;DHT22;23154;52.542;13.362;2022-08-30T07:50:57;19.10;99.90
37268;DHT22;23154;52.542;13.362;2022-08-30T07:53:23;19.20;99.90
37268;DHT22;23154;52.542;13.362;2022-08-30T07:55:48;19.20;99.90
37268;DHT22;23154;52.542;13.362;2022-08-30T07:58:14;19.20;99.90
37268;DHT22;23154;52.542;13.362;2022-08-30T08:00:40;19.30;99.90
37268;DHT22;23154;52.542;13.362;2022-08-30T08:03:06;19.30;99.90
37268;DHT22;23154;52.542;13.362;2022-08-30T08:05:39;19.40;99.90
37268;DHT22;23154;52.542;13.362;2022-08-30T08:08:05;19.20;99.90
37268;DHT22;23154;52.542;13.362;2022-08-30T08:10:31;19.50;99.90
37268;DHT22;23154;52.542;13.362;2022-08-30T08:12:57;19.40;99.90
37268;DHT22;23154;52.542;13.362;2022-08-30T08:15:22;19.60;99.90
37268;DHT22;23154;52.542;13.362;2022-08-30T08:17:50;19.90;99.90
37268;DHT22;23154;52.542;13.362;2022-08-30T08:20:15;20.10;99.90
37268;DHT22;23154;52.542;13.362;2022-08-30T08:22:41;20.20;99.90
37268;DHT22;23154;52.542;13.362;2022-08-30T08:25:07;20.10;99.90
37268;DHT22;23154;52.542;13.362;2022-08-30T08:27:32;20.40;99.90
37268;DHT22;23154;52.542;13.362;2022-08-30T08:29:58;20.50;99.90
37268;DHT22;23154;52.542;13.362;2022-08-30T08:32:23;20.80;99.90
37268;DHT22;23154;52.542;13.362;2022-08-30T08:34:49;20.90;99.90
37268;DHT22;23154;52.542;13.362;2022-08-30T08:37:14;20.50;99.90
37268;DHT22;23154;52.542;13.362;2022-08-30T08:39:40;20.90;99.90
37268;DHT22;23154;52.542;13.362;2022-08-30T08:45:18;21.10;99.90
37268;DHT22;23154;52.542;13.362;2022-08-30T08:48:00;21.20;99.90
37268;DHT22;23154;52.542;13.362;2022-08-30T08:50:26;21.20;99.90
37268;DHT22;23154;52.542;13.362;2022-08-30T08:55:50;20.60;99.90
37268;DHT22;23154;52.542;13.362;2022-08-30T08:58:28;19.70;99.90
37268;DHT22;23154;52.542;13.362;2022-08-30T09:00:55;19.40;99.90
37268;DHT22;23154;52.542;13.362;2022-08-30T09:03:24;19.30;99.90
37268;DHT22;23154;52.542;13.362;2022-08-30T09:05:52;19.30;99.90
37268;DHT22;23154;52.542;13.362;2022-08-30T09:08:19;19.40;99.90
37268;DHT22;23154;52.542;13.362;2022-08-30T09:10:56;19.50;99.90
37268;DHT22;23154;52.542;13.362;2022-08-30T09:13:24;19.70;99.90
37268;DHT22;23154;52.542;13.362;2022-08-30T09:15:55;19.70;99.90
37268;DHT22;23154;52.542;13.362;2022-08-30T09:18:42;19.60;99.90
37268;DHT22;23154;52.542;13.362;2022-08-30T09:21:09;19.40;99.90
37268;DHT22;23154;52.542;13.362;2022-08-30T09:23:36;19.30;99.90
37268;DHT22;23154;52.542;13.362;2022-08-30T09:26:11;19.30;99.90
37268;DHT22;23154;52.542;13.362;2022-08-30T09:28:47;19.40;99.90
37268;DHT22;23154;52.542;13.362;2022-08-30T09:31:28;19.60;99.90
37268;DHT22;23154;52.542;13.362;2022-08-30T09:34:06;19.40;99.90
37268;DHT22;23154;52.542;13.362;2022-08-30T09:36:39;19.50;99.90
37268;DHT22;23154;52.542;13.362;2022-08-30T09:39:27;19.60;99.90
37268;DHT22;23154;52.542;13.362;2022-08-30T09:41:54;19.80;99.90
37268;DHT22;23154;52.542;13.362;2022-08-30T09:44:37;20.10;99.90
37268;DHT22;23154;52.542;13.362;2022-08-30T09:47:03;20.40;99.90
37268;DHT22;23154;52.542;13.362;2022-08-30T09:49:34;20.50;99.90
37268;DHT22;23154;52.542;13.362;2022-08-30T09:57:38;20.30;99.90
37268;DHT22;23154;52.542;13.362;2022-08-30T10:00:13;20.40;99.90
37268;DHT22;23154;52.542;13.362;2022-08-30T10:05:21;20.90;99.90
37268;DHT22;23154;52.542;13.362;2022-08-30T10:10:23;20.90;99.90
37268;DHT22;23154;52.542;13.362;2022-08-30T10:12:57;20.90;99.90
37268;DHT22;23154;52.542;13.362;2022-08-30T10:26:14;21.50;99.90
37268;DHT22;23154;52.542;13.362;2022-08-30T10:28:47;21.20;99.90
37268;DHT22;23154;52.542;13.362;2022-08-30T10:34:11;21.50;99.90
37268;DHT22;23154;52.542;13.362;2022-08-30T10:36:50;21.40;99.90
37268;DHT22;23154;52.542;13.362;2022-08-30T10:39:26;22.20;99.90
37268;DHT22;23154;52.542;13.362;2022-08-30T10:42:00;22.30;99.90
37268;DHT22;23154;52.542;13.362;2022-08-30T10:44:32;22.50;99.90
37268;DHT22;23154;52.542;13.362;2022-08-30T10:47:28;22.50;99.90
37268;DHT22;23154;52.542;13.362;2022-08-30T10:52:58;23.10;99.90
37268;DHT22;23154;52.542;13.362;2022-08-30T10:55:32;23.10;99.90
37268;DHT22;23154;52.542;13.362;2022-08-30T10:58:01;23.00;99.90
37268;DHT22;23154;52.542;13.362;2022-08-30T11:00:38;22.50;99.90
37268;DHT22;23154;52.542;13.362;2022-08-30T11:09:04;22.20;99.90
37268;DHT22;23154;52.542;13.362;2022-08-30T11:14:17;21.80;99.90
37268;DHT22;23154;52.542;13.362;2022-08-30T11:16:48;22.10;99.90
37268;DHT22;23154;52.542;13.362;2022-08-30T11:19:27;22.40;99.90
37268;DHT22;23154;52.542;13.362;2022-08-30T11:22:14;22.70;99.90
37268;DHT22;23154;52.542;13.362;2022-08-30T11:25:01;22.90;99.90
37268;DHT22;23154;52.542;13.362;2022-08-30T11:27:51;22.60;99.90
37268;DHT22;23154;52.542;13.362;2022-08-30T11:35:41;22.80;99.90
37268;DHT22;23154;52.542;13.362;2022-08-30T11:40:49;23.00;99.90
37268;DHT22;23154;52.542;13.362;2022-08-30T11:51:59;22.60;99.90
37268;DHT22;23154;52.542;13.362;2022-08-30T11:54:51;22.30;99.90
37268;DHT22;23154;52.542;13.362;2022-08-30T11:57:27;22.50;99.90
37268;DHT22;23154;52.542;13.362;2022-08-30T12:00:10;23.10;99.90
37268;DHT22;23154;52.542;13.362;2022-08-30T12:02:56;23.30;99.90
37268;DHT22;23154;52.542;13.362;2022-08-30T12:05:46;22.80;99.90
37268;DHT22;23154;52.542;13.362;2022-08-30T12:10:54;23.10;99.90
37268;DHT22;23154;52.542;13.362;2022-08-30T12:16:11;23.30;99.90
37268;DHT22;23154;52.542;13.362;2022-08-30T12:24:01;23.50;99.90
37268;DHT22;23154;52.542;13.362;2022-08-30T12:26:36;23.50;99.90
37268;DHT22;23154;52.542;13.362;2022-08-30T12:29:22;23.60;99.90
37268;DHT22;23154;52.542;13.362;2022-08-30T12:31:50;23.50;99.90
37268;DHT22;23154;52.542;13.362;2022-08-30T12:34:23;23.30;99.90
37268;DHT22;23154;52.542;13.362;2022-08-30T12:36:51;23.50;99.90
37268;DHT22;23154;52.542;13.362;2022-08-30T12:39:27;23.50;99.90
37268;DHT22;23154;52.542;13.362;2022-08-30T12:41:54;23.60;99.90
37268;DHT22;23154;52.542;13.362;2022-08-30T12:44:23;23.70;99.90
37268;DHT22;23154;52.542;13.362;2022-08-30T12:46:56;23.30;99.90
37268;DHT22;23154;52.542;13.362;2022-08-30T12:49:26;23.30;99.90
37268;DHT22;23154;52.542;13.362;2022-08-30T12:51:53;23.00;99.90
37268;DHT22;23154;52.542;13.362;2022-08-30T12:54:22;23.70;99.90
37268;DHT22;23154;52.542;13.362;2022-08-30T12:56:52;23.90;99.90
37268;DHT22;23154;52.542;13.362;2022-08-30T12:59:51;24.00;99.90
37268;DHT22;23154;52.542;13.362;2022-08-30T13:02:23;23.80;99.90
37268;DHT22;23154;52.542;13.362;2022-08-30T13:04:51;24.20;99.90
37268;DHT22;23154;52.542;13.362;2022-08-30T13:07:32;24.30;99.90
37268;DHT22;23154;52.542;13.362;2022-08-30T13:10:18;24.30;99.90
37268;DHT22;23154;52.542;13.362;2022-08-30T13:13:02;24.50;99.90
37268;DHT22;23154;52.542;13.362;2022-08-30T13:15:33;24.40;99.90
37268;DHT22;23154;52.542;13.362;2022-08-30T13:18:24;23.70;99.90
37268;DHT22;23154;52.542;13.362;2022-08-30T13:21:09;24.00;99.90
37268;DHT22;23154;52.542;13.362;2022-08-30T13:23:34;24.60;99.90
37268;DHT22;23154;52.542;13.362;2022-08-30T13:26:00;24.60;99.90
37268;DHT22;23154;52.542;13.362;2022-08-30T13:28:26;24.50;99.90
37268;DHT22;23154;52.542;13.362;2022-08-30T13:30:52;24.10;99.90
37268;DHT22;23154;52.542;13.362;2022-08-30T13:33:17;24.00;99.90
37268;DHT22;23154;52.542;13.362;2022-08-30T13:35:43;24.10;99.90
37268;DHT22;23154;52.542;13.362;2022-08-30T13:38:09;23.90;99.90
37268;DHT22;23154;52.542;13.362;2022-08-30T13:40:34;24.40;99.90
37268;DHT22;23154;52.542;13.362;2022-08-30T13:43:00;24.40;99.90
37268;DHT22;23154;52.542;13.362;2022-08-30T13:45:26;24.30;99.90
37268;DHT22;23154;52.542;13.362;2022-08-30T13:47:51;24.00;99.90
37268;DHT22;23154;52.542;13.362;2022-08-30T13:50:17;24.20;99.90
37268;DHT22;23154;52.542;13.362;2022-08-30T13:52:44;24.00;99.90
37268;DHT22;23154;52.542;13.362;2022-08-30T13:55:10;24.40;99.90
37268;DHT22;23154;52.542;13.362;2022-08-30T13:57:38;24.30;99.90
37268;DHT22;23154;52.542;13.362;2022-08-30T14:00:07;24.00;99.90
37268;DHT22;23154;52.542;13.362;2022-08-30T14:02:34;23.90;99.90
37268;DHT22;23154;52.542;13.362;2022-08-30T14:04:59;23.90;99.90
37268;DHT22;23154;52.542;13.362;2022-08-30T14:07:25;23.60;99.90
37268;DHT22;23154;52.542;13.362;2022-08-30T14:09:51;23.70;99.90
37268;DHT22;23154;52.542;13.362;2022-08-30T14:12:16;23.80;99.90
37268;DHT22;23154;52.542;13.362;2022-08-30T14:14:42;24.00;99.90
37268;DHT22;23154;52.542;13.362;2022-08-30T14:17:07;23.70;99.90
37268;DHT22;23154;52.542;13.362;2022-08-30T14:19:33;23.60;99.90
37268;DHT22;23154;52.542;13.362;2022-08-30T14:21:59;23.40;99.90
37268;DHT22;23154;52.542;13.362;2022-08-30T14:24:24;23.50;99.90
37268;DHT22;23154;52.542;13.362;2022-08-30T14:26:50;23.70;99.90
37268;DHT22;23154;52.542;13.362;2022-08-30T14:29:19;23.50;99.90
37268;DHT22;23154;52.542;13.362;2022-08-30T14:31:46;23.30;99.90
37268;DHT22;23154;52.542;13.362;2022-08-30T14:34:13;23.30;99.90
37268;DHT22;23154;52.542;13.362;2022-08-30T14:36:41;23.10;99.90
37268;DHT22;23154;52.542;13.362;2022-08-30T14:39:10;23.20;99.90
37268;DHT22;23154;52.542;13.362;2022-08-30T14:41:41;23.30;99.90
37268;DHT22;23154;52.542;13.362;2022-08-30T14:44:08;23.30;99.90
37268;DHT22;23154;52.542;13.362;2022-08-30T14:46:36;23.20;99.90
37268;DHT22;23154;52.542;13.362;2022-08-30T14:49:01;23.20;99.90
37268;DHT22;23154;52.542;13.362;2022-08-30T14:51:27;23.20;99.90
37268;DHT22;23154;52.542;13.362;2022-08-30T14:53:53;23.00;99.90
37268;DHT22;23154;52.542;13.362;2022-08-30T14:56:20;22.90;99.90
37268;DHT22;23154;52.542;13.362;2022-08-30T14:58:48;22.70;99.90
37268;DHT22;23154;52.542;13.362;2022-08-30T15:01:15;22.50;99.90
37268;DHT22;23154;52.542;13.362;2022-08-30T15:03:41;22.50;99.90
37268;DHT22;23154;52.542;13.362;2022-08-30T15:06:07;22.60;99.90
37268;DHT22;23154;52.542;13.362;2022-08-30T15:08:34;22.70;99.90
37268;DHT22;23154;52.542;13.362;2022-08-30T15:11:00;22.80;99.90
37268;DHT22;23154;52.542;13.362;2022-08-30T15:13:26;22.90;99.90
37268;DHT22;23154;52.542;13.362;2022-08-30T15:15:52;22.70;99.90
37268;DHT22;23154;52.542;13.362;2022-08-30T15:18:17;22.70;99.90
37268;DHT22;23154;52.542;13.362;2022-08-30T15:20:47;22.70;99.90
37268;DHT22;23154;52.542;13.362;2022-08-30T15:23:15;22.70;99.90
37268;DHT22;23154;52.542;13.362;2022-08-30T15:25:43;22.90;99.90
37268;DHT22;23154;52.542;13.362;2022-08-30T15:28:12;22.90;99.90
37268;DHT22;23154;52.542;13.362;2022-08-30T15:30:40;23.00;99.90
37268;DHT22;23154;52.542;13.362;2022-08-30T15:33:08;23.00;99.90
37268;DHT22;23154;52.542;13.362;2022-08-30T15:35:35;22.90;99.90
37268;DHT22;23154;52.542;13.362;2022-08-30T15:38:04;23.20;99.90
37268;DHT22;23154;52.542;13.362;2022-08-30T15:40:31;24.00;99.90
37268;DHT22;23154;52.542;13.362;2022-08-30T15:42:57;24.70;99.90
37268;DHT22;23154;52.542;13.362;2022-08-30T15:45:23;25.50;99.90
37268;DHT22;23154;52.542;13.362;2022-08-30T15:47:49;25.00;99.90
37268;DHT22;23154;52.542;13.362;2022-08-30T15:50:15;24.20;99.90
37268;DHT22;23154;52.542;13.362;2022-08-30T15:52:41;23.40;99.90
37268;DHT22;23154;52.542;13.362;2022-08-30T15:55:08;23.70;99.90
37268;DHT22;23154;52.542;13.362;2022-08-30T15:57:33;23.30;99.90
37268;DHT22;23154;52.542;13.362;2022-08-30T15:59:59;23.40;99.90
37268;DHT22;23154;52.542;13.362;2022-08-30T16:02:25;23.10;99.90
37268;DHT22;23154;52.542;13.362;2022-08-30T16:04:51;22.90;99.90
37268;DHT22;23154;52.542;13.362;2022-08-30T16:07:16;22.50;99.90
37268;DHT22;23154;52.542;13.362;2022-08-30T16:09:42;23.00;99.90
37268;DHT22;23154;52.542;13.362;2022-08-30T16:12:08;23.10;99.90
37268;DHT22;23154;52.542;13.362;2022-08-30T16:14:34;23.00;99.90
37268;DHT22;23154;52.542;13.362;2022-08-30T16:17:00;23.00;99.90
37268;DHT22;23154;52.542;13.362;2022-08-30T16:19:27;23.10;99.90
37268;DHT22;23154;52.542;13.362;2022-08-30T16:21:52;23.40;99.90
37268;DHT22;23154;52.542;13.362;2022-08-30T16:24:18;23.10;99.90
37268;DHT22;23154;52.542;13.362;2022-08-30T16:26:44;23.00;99.90
37268;DHT22;23154;52.542;13.362;2022-08-30T16:29:11;22.70;99.90
37268;DHT22;23154;52.542;13.362;2022-08-30T16:31:37;22.60;99.90
37268;DHT22;23154;52.542;13.362;2022-08-30T16:34:04;22.40;99.90
37268;DHT22;23154;52.542;13.362;2022-08-30T16:36:30;22.40;99.90